DAON

Zenata – Messali El Hadj Airport

Tlemcen, Algeria
METAR DAON 182330Z 34003KT 9999 FEW026 25/16 Q1015
Observed Flight Rules
Aug-18 @ 23:30 UTC (17 minutes ago) Visual Flight Rules
Wind Visibility Clouds
340° at 3 knots 10,000+ meters
  • Few at 2,600' AGL
Temperatures Readings
Current 25°C / 77°F
Dewpoint 16°C / 61°F
Humidity 57%
Altimeter 29.97" Hg
Pressure 1015 hPa
Elevation 247
METAR DAON 182330Z 34003KT 9999 FEW026 25/16 Q1015
Observed Flight Rules
Aug-18 @ 23:30 UTC
(17 minutes ago)
VFR
Wind Visibility
340° at 3 knots 10,000+ meters
Clouds
  • Few at 2,600' AGL
Temperature Dewpoint
25°C / 77°F 16°C / 61°F
Humidity Altimeter Pressure
57% 29.97" Hg 1015 hPa